createdAt,value
2018-02-27T00:02:29.154Z,7.65
2018-02-27T00:05:08.696Z,7.57
2018-02-27T00:07:47.596Z,8.27
2018-02-27T00:10:28.058Z,8.20
2018-02-27T00:13:07.631Z,8.77
2018-02-27T00:15:47.084Z,7.15
2018-02-27T00:18:25.504Z,8.02
2018-02-27T00:21:04.037Z,8.02
2018-02-27T00:23:42.603Z,8.10
2018-02-27T00:26:21.208Z,7.68
2018-02-27T00:29:02.798Z,7.90
2018-02-27T00:31:41.183Z,7.70
2018-02-27T00:34:19.547Z,7.60
2018-02-27T00:36:58.092Z,6.60
2018-02-27T00:39:36.301Z,7.15
2018-02-27T00:42:14.609Z,6.55
2018-02-27T00:44:55.086Z,6.78
2018-02-27T00:47:33.965Z,7.60
2018-02-27T00:50:15.994Z,7.07
2018-02-27T00:52:58.842Z,7.15
2018-02-27T00:55:42.025Z,7.80
2018-02-27T00:58:21.757Z,6.10
2018-02-27T01:01:06.263Z,6.37
2018-02-27T01:03:46.798Z,6.75
2018-02-27T01:06:26.244Z,6.95
2018-02-27T01:09:08.614Z,7.37
2018-02-27T01:11:49.818Z,6.97
2018-02-27T01:14:32.683Z,7.93
2018-02-27T01:20:01.998Z,8.43
2018-02-27T01:22:44.232Z,8.70
2018-02-27T01:25:22.803Z,10.85
2018-02-27T01:28:01.103Z,9.30
2018-02-27T01:30:40.545Z,10.50
2018-02-27T01:33:20.214Z,10.60
2018-02-27T01:35:59.776Z,11.57
2018-02-27T01:38:38.093Z,12.20
2018-02-27T01:41:18.686Z,10.25
2018-02-27T01:43:56.935Z,9.73
2018-02-27T01:46:37.247Z,10.63
2018-02-27T01:49:15.693Z,10.85
2018-02-27T01:51:56.981Z,9.70
2018-02-27T01:54:35.696Z,11.70
2018-02-27T01:57:16.908Z,11.82
2018-02-27T01:59:57.963Z,10.73
2018-02-27T02:02:37.793Z,11.60
2018-02-27T02:05:20.296Z,11.50
2018-02-27T02:07:59.813Z,15.60
2018-02-27T02:10:41.587Z,59.15
2018-02-27T02:13:21.053Z,17.12
2018-02-27T02:16:01.868Z,16.00
2018-02-27T02:18:40.068Z,10.48
2018-02-27T02:21:18.649Z,11.38
2018-02-27T02:23:58.039Z,10.52
2018-02-27T02:26:38.482Z,11.25
2018-02-27T02:29:20.051Z,10.40
2018-02-27T02:31:59.617Z,10.05
2018-02-27T02:34:39.228Z,10.27
2018-02-27T02:37:20.721Z,11.25
2018-02-27T02:40:01.274Z,11.60
2018-02-27T02:42:39.743Z,17.27
2018-02-27T02:45:19.214Z,13.60
2018-02-27T02:47:57.899Z,10.85
2018-02-27T02:50:37.221Z,12.57
2018-02-27T02:53:16.826Z,14.65
2018-02-27T02:55:55.229Z,20.75
2018-02-27T02:58:36.080Z,18.10
2018-02-27T03:01:19.958Z,13.73
2018-02-27T03:04:00.408Z,12.68
2018-02-27T03:06:40.920Z,12.70
2018-02-27T03:09:21.473Z,12.23
2018-02-27T03:12:00.140Z,12.73
2018-02-27T03:14:42.370Z,12.05
2018-02-27T03:17:20.958Z,13.45
2018-02-27T03:20:00.535Z,12.37
2018-02-27T03:22:41.996Z,12.73
2018-02-27T03:25:21.573Z,13.55
2018-02-27T03:28:00.096Z,13.73
2018-02-27T03:30:38.559Z,14.50
2018-02-27T03:33:18.147Z,14.30
2018-02-27T03:35:57.415Z,16.65
2018-02-27T03:38:39.005Z,16.15
2018-02-27T03:41:17.331Z,15.60
2018-02-27T03:43:56.714Z,17.35
2018-02-27T03:46:35.379Z,17.17
2018-02-27T03:49:13.605Z,18.40
2018-02-27T03:51:54.200Z,16.75
2018-02-27T03:54:33.603Z,16.48
2018-02-27T03:57:12.407Z,16.52
2018-02-27T03:59:50.875Z,37.25
2018-02-27T04:02:29.285Z,21.48
2018-02-27T04:05:09.883Z,15.23
2018-02-27T04:07:48.483Z,31.58
2018-02-27T04:10:27.047Z,21.35
2018-02-27T04:13:06.506Z,18.75
2018-02-27T04:15:45.954Z,23.75
2018-02-27T04:18:24.503Z,19.62
2018-02-27T04:21:03.113Z,17.00
2018-02-27T04:23:43.727Z,18.87
2018-02-27T04:26:24.154Z,17.98
2018-02-27T04:29:03.786Z,32.88
2018-02-27T04:31:43.357Z,21.48
2018-02-27T04:34:22.887Z,21.45
2018-02-27T04:37:01.441Z,19.52
2018-02-27T04:39:39.794Z,20.35
2018-02-27T04:42:18.393Z,21.73
2018-02-27T04:44:56.996Z,21.75
2018-02-27T04:47:35.500Z,22.33
2018-02-27T04:50:13.990Z,22.50
2018-02-27T04:52:52.515Z,21.02
2018-02-27T04:55:31.002Z,23.52
2018-02-27T04:58:09.637Z,18.67
2018-02-27T05:00:49.079Z,19.95
2018-02-27T05:03:28.279Z,22.45
2018-02-27T05:06:06.920Z,21.67
2018-02-27T05:08:46.571Z,23.33
2018-02-27T05:11:26.070Z,24.65
2018-02-27T05:14:04.389Z,28.75
2018-02-27T05:16:43.156Z,25.35
2018-02-27T05:19:23.757Z,23.40
2018-02-27T05:22:02.267Z,21.30
2018-02-27T05:24:42.549Z,22.17
2018-02-27T05:27:20.907Z,23.75
2018-02-27T05:30:00.819Z,26.10
2018-02-27T05:32:40.044Z,25.00
2018-02-27T05:35:18.512Z,26.98
2018-02-27T05:37:58.020Z,26.12
2018-02-27T05:40:37.553Z,48.53
2018-02-27T05:43:16.938Z,55.90
2018-02-27T05:45:55.449Z,44.92
2018-02-27T05:48:33.399Z,32.13
2018-02-27T05:51:13.188Z,26.95
2018-02-27T05:53:53.686Z,30.02
2018-02-27T05:56:36.316Z,35.58
2018-02-27T05:59:15.338Z,35.00
2018-02-27T06:01:54.551Z,24.90
2018-02-27T06:04:40.150Z,25.27
2018-02-27T06:07:18.565Z,27.92
2018-02-27T06:09:58.913Z,31.42
2018-02-27T06:12:40.354Z,30.77
2018-02-27T06:15:18.774Z,30.15
2018-02-27T06:17:57.079Z,28.85
2018-02-27T06:20:37.630Z,27.35
2018-02-27T06:23:20.130Z,24.10
2018-02-27T06:25:58.433Z,24.02
2018-02-27T06:28:36.903Z,23.58
2018-02-27T06:31:16.413Z,27.13
2018-02-27T06:33:58.990Z,27.75
2018-02-27T06:36:38.385Z,27.52
2018-02-27T06:39:16.918Z,29.02
2018-02-27T06:41:56.663Z,30.60
2018-02-27T06:44:37.032Z,24.75
2018-02-27T06:47:16.645Z,29.65
2018-02-27T06:49:57.210Z,30.83
2018-02-27T06:52:37.836Z,32.53
2018-02-27T06:55:18.185Z,38.50
2018-02-27T06:58:03.740Z,31.15
2018-02-27T07:00:42.048Z,30.52
2018-02-27T07:03:20.603Z,31.75
2018-02-27T07:06:00.154Z,28.87
2018-02-27T07:08:39.575Z,37.67
2018-02-27T07:11:18.089Z,35.97
2018-02-27T07:13:56.564Z,24.25
2018-02-27T07:16:37.893Z,22.55
2018-02-27T07:19:16.390Z,27.13
2018-02-27T07:21:55.954Z,30.85
2018-02-27T07:24:35.506Z,28.70
2018-02-27T07:27:14.049Z,24.05
2018-02-27T07:29:53.362Z,25.52
2018-02-27T07:32:31.796Z,25.40
2018-02-27T07:35:13.216Z,31.37
2018-02-27T07:37:52.697Z,26.75
2018-02-27T07:40:31.263Z,25.75
2018-02-27T07:43:10.730Z,32.33
2018-02-27T07:45:49.154Z,37.00
2018-02-27T07:48:27.774Z,29.67
2018-02-27T07:51:07.392Z,28.87
2018-02-27T07:53:45.069Z,35.30
2018-02-27T07:56:23.586Z,27.50
2018-02-27T08:05:56.727Z,53.30
2018-02-27T08:08:35.104Z,48.05
2018-02-27T08:11:15.711Z,41.75
2018-02-27T08:13:54.173Z,25.17
2018-02-27T08:16:34.634Z,30.73
2018-02-27T08:19:14.140Z,32.47
2018-02-27T08:21:52.758Z,33.95
2018-02-27T08:24:31.184Z,24.67
2018-02-27T08:27:09.770Z,25.77
2018-02-27T08:29:49.173Z,25.58
2018-02-27T08:32:28.679Z,25.95
2018-02-27T08:35:07.093Z,27.40
2018-02-27T08:37:46.589Z,28.90
2018-02-27T08:40:24.822Z,30.90
2018-02-27T08:43:04.256Z,30.55
2018-02-27T08:45:42.821Z,26.70
2018-02-27T08:48:23.335Z,28.65
2018-02-27T08:51:01.826Z,27.73
2018-02-27T08:53:41.324Z,30.40
2018-02-27T08:56:23.805Z,32.05
2018-02-27T08:59:02.476Z,29.00
2018-02-27T09:01:40.880Z,31.98
2018-02-27T09:04:20.271Z,26.20
2018-02-27T09:06:59.681Z,28.12
2018-02-27T09:09:39.190Z,23.85
2018-02-27T09:12:18.606Z,39.08
2018-02-27T09:14:56.988Z,42.60
2018-02-27T09:17:35.592Z,44.42
2018-02-27T09:20:14.048Z,37.40
2018-02-27T09:22:52.433Z,35.83
2018-02-27T09:25:30.965Z,38.70
2018-02-27T09:28:09.327Z,37.22
2018-02-27T09:30:48.260Z,29.27
2018-02-27T09:33:26.740Z,28.75
2018-02-27T09:36:06.328Z,26.17
2018-02-27T09:38:45.011Z,23.75
2018-02-27T09:41:27.553Z,20.73
2018-02-27T09:44:04.973Z,16.95
2018-02-27T09:46:43.524Z,15.93
2018-02-27T09:49:23.118Z,12.35
2018-02-27T09:52:01.817Z,10.43
2018-02-27T09:54:40.189Z,9.25
2018-02-27T09:57:19.852Z,9.48
2018-02-27T09:59:58.372Z,11.35
2018-02-27T10:02:36.820Z,11.05
2018-02-27T10:05:15.387Z,9.70
2018-02-27T10:07:53.793Z,10.23
2018-02-27T10:10:34.341Z,11.35
2018-02-27T10:13:12.891Z,9.02
2018-02-27T10:15:52.328Z,7.55
2018-02-27T10:18:32.896Z,6.35
2018-02-27T10:21:10.470Z,6.82
2018-02-27T10:23:48.855Z,5.75
2018-02-27T10:26:27.403Z,5.80
2018-02-27T10:29:06.843Z,6.90
2018-02-27T10:31:46.277Z,7.10
2018-02-27T10:34:25.917Z,6.10
2018-02-27T10:37:03.175Z,6.15
2018-02-27T10:39:41.974Z,7.25
2018-02-27T10:42:21.611Z,6.47
2018-02-27T10:44:59.951Z,5.97
2018-02-27T10:47:39.529Z,5.95
2018-02-27T10:50:17.915Z,6.10
2018-02-27T10:52:56.345Z,5.22
2018-02-27T10:55:37.844Z,5.90
2018-02-27T10:58:16.476Z,6.72
2018-02-27T11:01:09.828Z,5.87
2018-02-27T11:03:49.320Z,5.40
2018-02-27T11:06:27.915Z,6.40
2018-02-27T11:09:06.275Z,5.90
2018-02-27T11:11:45.770Z,6.37
2018-02-27T11:14:24.258Z,5.62
2018-02-27T11:17:02.760Z,5.93
2018-02-27T11:19:41.088Z,7.05
2018-02-27T11:22:18.138Z,6.40
2018-02-27T11:24:59.096Z,6.43
2018-02-27T11:27:38.424Z,6.20
2018-02-27T11:30:16.906Z,6.12
2018-02-27T11:32:56.520Z,5.97
2018-02-27T11:35:34.839Z,5.75
2018-02-27T11:38:13.500Z,6.50
2018-02-27T11:40:52.053Z,6.55
2018-02-27T11:43:31.647Z,7.10
2018-02-27T11:46:10.360Z,6.18
2018-02-27T11:48:48.712Z,6.90
2018-02-27T11:51:27.158Z,6.80
2018-02-27T11:54:06.556Z,6.55
2018-02-27T11:56:45.719Z,6.22
2018-02-27T11:59:24.251Z,6.75
2018-02-27T12:02:02.801Z,6.75
2018-02-27T12:04:42.222Z,6.75
2018-02-27T12:07:20.648Z,6.72
2018-02-27T12:09:58.790Z,6.30
2018-02-27T12:12:37.232Z,6.65
2018-02-27T12:15:17.437Z,7.47
2018-02-27T12:17:57.257Z,7.28
2018-02-27T12:20:35.837Z,7.37
2018-02-27T12:23:14.335Z,7.78
2018-02-27T12:25:52.935Z,7.05
2018-02-27T12:28:31.288Z,7.20
2018-02-27T12:31:10.275Z,7.37
2018-02-27T12:33:49.153Z,6.70
2018-02-27T12:36:33.228Z,7.40
2018-02-27T12:39:12.181Z,8.50
2018-02-27T12:41:50.533Z,8.52
2018-02-27T12:44:30.932Z,8.25
2018-02-27T12:47:09.468Z,10.25
2018-02-27T12:49:49.784Z,10.02
2018-02-27T12:52:28.163Z,7.50
2018-02-27T12:55:06.415Z,7.47
2018-02-27T12:57:44.925Z,9.40
2018-02-27T13:00:22.265Z,8.63
2018-02-27T13:03:03.675Z,6.87
2018-02-27T13:05:42.266Z,6.47
2018-02-27T13:08:20.654Z,5.90
2018-02-27T13:10:59.221Z,6.40
2018-02-27T13:13:37.741Z,6.22
2018-02-27T13:16:17.306Z,7.22
2018-02-27T13:18:54.688Z,7.45
2018-02-27T13:21:33.036Z,6.40
2018-02-27T13:24:12.740Z,6.20
2018-02-27T13:26:51.244Z,6.43
2018-02-27T13:29:28.767Z,6.03
2018-02-27T13:32:08.367Z,6.40
2018-02-27T13:34:48.769Z,6.00
2018-02-27T13:37:28.219Z,7.03
2018-02-27T13:40:07.770Z,5.50
2018-02-27T13:42:45.420Z,6.80
2018-02-27T13:45:23.859Z,6.53
2018-02-27T13:48:02.240Z,5.18
2018-02-27T13:50:39.709Z,5.32
2018-02-27T13:53:18.350Z,5.90
2018-02-27T13:55:58.112Z,5.25
2018-02-27T13:58:36.536Z,5.20
2018-02-27T14:01:15.188Z,4.80
2018-02-27T14:03:54.872Z,5.32
2018-02-27T14:06:34.567Z,4.40
2018-02-27T14:09:13.453Z,5.62
2018-02-27T14:11:52.317Z,4.40
2018-02-27T14:14:30.901Z,5.03
2018-02-27T14:17:10.568Z,4.70
2018-02-27T14:19:49.946Z,4.25
2018-02-27T14:22:28.412Z,4.40
2018-02-27T14:25:06.914Z,5.10
2018-02-27T14:27:47.391Z,4.28
2018-02-27T14:30:27.035Z,4.30
2018-02-27T14:33:05.685Z,5.10
2018-02-27T14:35:44.104Z,6.07
2018-02-27T14:38:23.639Z,5.00
2018-02-27T14:41:03.258Z,4.93
2018-02-27T14:43:42.900Z,4.20
2018-02-27T14:46:21.307Z,6.62
2018-02-27T14:48:59.853Z,5.65
2018-02-27T14:51:39.447Z,4.10
2018-02-27T14:54:17.992Z,4.10
2018-02-27T14:56:56.602Z,3.80
2018-02-27T14:59:35.030Z,4.03
2018-02-27T15:02:13.433Z,3.75
2018-02-27T15:04:51.853Z,5.00
2018-02-27T15:07:30.404Z,4.37
2018-02-27T15:10:08.829Z,5.20
2018-02-27T15:12:48.249Z,5.05
2018-02-27T15:15:26.528Z,3.78
2018-02-27T15:18:03.828Z,4.97
2018-02-27T15:20:42.453Z,3.00
2018-02-27T15:23:21.003Z,3.50
2018-02-27T15:25:59.303Z,4.90
2018-02-27T15:28:38.774Z,3.58
2018-02-27T15:31:17.356Z,3.70
2018-02-27T15:33:56.984Z,4.22
2018-02-27T15:36:36.356Z,4.00
2018-02-27T15:39:16.898Z,5.03
2018-02-27T15:41:57.355Z,4.68
2018-02-27T15:44:35.676Z,4.20
2018-02-27T15:47:14.251Z,3.75
2018-02-27T15:49:54.780Z,3.53
2018-02-27T15:52:33.364Z,4.18
2018-02-27T15:55:13.018Z,3.55
2018-02-27T15:57:51.482Z,4.18
2018-02-27T16:00:30.054Z,4.75
2018-02-27T16:03:09.401Z,4.62
2018-02-27T16:05:47.680Z,4.50
2018-02-27T16:08:26.042Z,4.97
2018-02-27T16:11:05.372Z,4.80
2018-02-27T16:13:45.016Z,4.95
2018-02-27T16:16:24.471Z,4.55
2018-02-27T16:19:04.031Z,5.50
2018-02-27T16:21:44.539Z,4.68
2018-02-27T16:24:23.886Z,4.20
2018-02-27T16:27:02.746Z,6.78
2018-02-27T16:29:40.901Z,12.18
2018-02-27T16:32:20.470Z,10.20
2018-02-27T16:34:58.839Z,14.57
2018-02-27T16:37:37.287Z,9.18
2018-02-27T16:40:15.931Z,6.35
2018-02-27T16:42:54.456Z,6.43
2018-02-27T16:45:33.948Z,7.47
2018-02-27T16:48:12.645Z,5.07
2018-02-27T16:50:52.288Z,5.35
2018-02-27T16:53:30.931Z,6.62
2018-02-27T16:56:09.315Z,6.95
2018-02-27T16:58:47.793Z,6.20
2018-02-27T17:01:27.315Z,6.57
2018-02-27T17:04:06.847Z,6.95
2018-02-27T17:06:45.278Z,4.00
2018-02-27T17:09:23.786Z,4.12
2018-02-27T17:12:03.118Z,3.70
2018-02-27T17:14:40.546Z,3.60
2018-02-27T17:17:18.949Z,12.50
2018-02-27T17:19:58.379Z,6.15
2018-02-27T17:22:38.074Z,6.85
2018-02-27T17:25:18.358Z,6.10
2018-02-27T17:27:56.792Z,6.05
2018-02-27T17:30:36.367Z,4.55
2018-02-27T17:33:16.698Z,4.50
2018-02-27T17:35:56.075Z,3.37
2018-02-27T17:38:35.424Z,2.90
2018-02-27T17:41:13.872Z,3.20
2018-02-27T17:43:51.248Z,2.47
2018-02-27T17:46:29.673Z,3.42
2018-02-27T17:49:09.204Z,2.92
2018-02-27T17:51:48.841Z,3.03
2018-02-27T17:54:28.304Z,2.87
2018-02-27T17:57:06.711Z,2.72
2018-02-27T17:59:45.181Z,3.28
2018-02-27T18:02:22.595Z,2.92
2018-02-27T18:05:01.080Z,3.62
2018-02-27T18:07:39.700Z,3.85
2018-02-27T18:10:18.163Z,3.50
2018-02-27T18:12:56.530Z,4.70
2018-02-27T18:15:36.008Z,7.30
2018-02-27T18:18:14.451Z,3.37
2018-02-27T18:20:53.958Z,4.68
2018-02-27T18:23:34.455Z,3.35
2018-02-27T18:26:13.181Z,4.97
2018-02-27T18:28:52.066Z,3.95
2018-02-27T18:31:30.316Z,4.32
2018-02-27T18:34:08.782Z,4.85
2018-02-27T18:36:48.224Z,2.80
2018-02-27T18:39:26.861Z,2.80
2018-02-27T18:42:05.169Z,2.30
2018-02-27T18:44:43.503Z,3.08
2018-02-27T18:47:20.469Z,3.97
2018-02-27T18:50:02.153Z,2.95
2018-02-27T18:52:41.745Z,2.90
2018-02-27T18:55:20.339Z,3.05
2018-02-27T18:57:59.912Z,4.40
2018-02-27T19:00:39.413Z,4.10
2018-02-27T19:03:17.880Z,4.18
2018-02-27T19:05:57.324Z,2.70
2018-02-27T19:08:35.921Z,2.40
2018-02-27T19:11:14.453Z,3.25
2018-02-27T19:13:53.768Z,4.70
2018-02-27T19:16:33.449Z,2.85
2018-02-27T19:19:11.812Z,2.97
2018-02-27T19:21:50.137Z,2.08
2018-02-27T19:24:28.574Z,4.70
2018-02-27T19:27:06.786Z,2.80
2018-02-27T19:29:45.245Z,3.10
2018-02-27T19:32:23.712Z,2.87
2018-02-27T19:35:02.165Z,2.60
2018-02-27T19:37:41.104Z,2.53
2018-02-27T19:40:20.033Z,3.30
2018-02-27T19:42:58.398Z,3.78
2018-02-27T19:45:36.834Z,3.47
2018-02-27T19:48:15.236Z,2.72
2018-02-27T19:50:56.730Z,2.80
2018-02-27T19:53:35.107Z,2.80
2018-02-27T19:56:14.669Z,3.70
2018-02-27T19:58:54.337Z,2.10
2018-02-27T20:01:33.818Z,2.65
2018-02-27T20:04:12.199Z,2.05
2018-02-27T20:06:50.658Z,3.45
2018-02-27T20:09:29.191Z,2.70
2018-02-27T20:12:07.614Z,3.53
2018-02-27T20:14:46.175Z,1.90
2018-02-27T20:17:25.772Z,1.90
2018-02-27T20:20:04.455Z,3.60
2018-02-27T20:22:48.874Z,2.40
2018-02-27T20:25:27.372Z,3.50
2018-02-27T20:28:05.749Z,2.00
2018-02-27T20:30:46.282Z,2.00
2018-02-27T20:33:25.709Z,3.20
2018-02-27T20:36:04.059Z,2.65
2018-02-27T20:38:48.427Z,2.00
2018-02-27T20:41:27.011Z,1.40
2018-02-27T20:44:05.491Z,2.67
2018-02-27T20:46:44.086Z,2.28
2018-02-27T20:49:22.459Z,2.20
2018-02-27T20:52:00.992Z,2.00
2018-02-27T20:54:39.437Z,1.90
2018-02-27T20:57:18.633Z,1.52
2018-02-27T20:59:57.306Z,1.92
2018-02-27T21:02:36.764Z,1.55
2018-02-27T21:05:15.372Z,2.65
2018-02-27T21:07:54.697Z,1.50
2018-02-27T21:10:34.118Z,1.77
2018-02-27T21:13:12.554Z,1.60
2018-02-27T21:15:52.998Z,2.37
2018-02-27T21:18:31.407Z,2.40
2018-02-27T21:21:09.978Z,1.90
2018-02-27T21:23:50.283Z,2.53
2018-02-27T21:26:29.107Z,2.87
2018-02-27T21:29:07.790Z,2.40
2018-02-27T21:31:46.897Z,2.00
2018-02-27T21:34:25.089Z,2.30
2018-02-27T21:37:04.136Z,1.93
2018-02-27T21:39:43.900Z,1.90
2018-02-27T21:42:22.328Z,2.27
2018-02-27T21:45:00.784Z,1.50
2018-02-27T21:47:40.226Z,3.40
2018-02-27T21:50:17.802Z,2.50
2018-02-27T21:52:58.457Z,3.53
2018-02-27T21:55:37.607Z,4.77
2018-02-27T21:58:16.226Z,4.90
2018-02-27T22:00:56.768Z,5.97
2018-02-27T22:03:36.247Z,3.90
2018-02-27T22:06:14.761Z,3.60
2018-02-27T22:08:53.304Z,2.60
2018-02-27T22:11:34.577Z,2.80
2018-02-27T22:14:13.011Z,2.63
2018-02-27T22:16:52.534Z,2.37
2018-02-27T22:19:35.604Z,2.20
2018-02-27T22:22:15.576Z,2.23
2018-02-27T22:24:54.124Z,2.27
2018-02-27T22:27:33.681Z,2.30
2018-02-27T22:30:12.215Z,4.93
2018-02-27T22:32:50.748Z,4.10
2018-02-27T22:35:30.275Z,3.17
2018-02-27T22:38:09.740Z,1.87
2018-02-27T22:40:48.346Z,2.33
2018-02-27T22:43:30.707Z,2.67
2018-02-27T22:46:09.501Z,1.93
2018-02-27T22:48:47.798Z,3.03
2018-02-27T22:51:27.307Z,1.70
2018-02-27T22:54:06.899Z,3.03
2018-02-27T22:56:45.692Z,1.80
2018-02-27T22:59:24.819Z,2.30
2018-02-27T23:02:04.053Z,2.00
2018-02-27T23:04:44.372Z,2.47
2018-02-27T23:07:22.920Z,3.10
2018-02-27T23:10:02.391Z,3.80
2018-02-27T23:12:40.854Z,2.97
2018-02-27T23:15:20.974Z,4.93
2018-02-27T23:18:02.942Z,3.43
2018-02-27T23:20:41.542Z,4.43
2018-02-27T23:23:19.839Z,3.47
2018-02-27T23:26:02.321Z,5.00
2018-02-27T23:28:42.731Z,2.60
2018-02-27T23:31:25.218Z,2.57
2018-02-27T23:34:08.752Z,2.42
2018-02-27T23:36:48.131Z,2.65
2018-02-27T23:39:27.624Z,14.43
2018-02-27T23:42:07.998Z,3.73
2018-02-27T23:44:47.612Z,3.58
2018-02-27T23:47:26.897Z,3.40
2018-02-27T23:50:05.441Z,4.30
2018-02-27T23:52:45.009Z,4.00
2018-02-27T23:55:24.660Z,3.20
2018-02-27T23:58:03.129Z,3.63
